sensor_id;sensor_type;location;lat;lon;timestamp;P1;durP1;ratioP1;P2;durP2;ratioP2
54929;SDS011;40833;53.238;6.576;2022-10-16T00:01:17;9.07;;;1.03;;
54929;SDS011;40833;53.238;6.576;2022-10-16T00:03:44;7.23;;;0.73;;
54929;SDS011;40833;53.238;6.576;2022-10-16T00:06:13;8.70;;;0.93;;
54929;SDS011;40833;53.238;6.576;2022-10-16T00:08:41;8.50;;;0.93;;
54929;SDS011;40833;53.238;6.576;2022-10-16T00:11:10;8.93;;;1.23;;
54929;SDS011;40833;53.238;6.576;2022-10-16T00:13:39;10.15;;;0.98;;
54929;SDS011;40833;53.238;6.576;2022-10-16T00:16:06;6.87;;;0.87;;
54929;SDS011;40833;53.238;6.576;2022-10-16T00:18:33;10.37;;;1.43;;
54929;SDS011;40833;53.238;6.576;2022-10-16T00:21:06;12.93;;;1.70;;
54929;SDS011;40833;53.238;6.576;2022-10-16T00:23:34;8.40;;;1.13;;
54929;SDS011;40833;53.238;6.576;2022-10-16T00:26:04;7.50;;;0.80;;
54929;SDS011;40833;53.238;6.576;2022-10-16T00:30:58;6.07;;;0.80;;
54929;SDS011;40833;53.238;6.576;2022-10-16T00:33:27;10.87;;;0.90;;
54929;SDS011;40833;53.238;6.576;2022-10-16T00:35:53;5.63;;;0.80;;
54929;SDS011;40833;53.238;6.576;2022-10-16T00:38:19;14.23;;;0.97;;
54929;SDS011;40833;53.238;6.576;2022-10-16T00:40:45;9.83;;;0.70;;
54929;SDS011;40833;53.238;6.576;2022-10-16T00:43:14;8.37;;;0.90;;
54929;SDS011;40833;53.238;6.576;2022-10-16T00:46:26;5.67;;;0.83;;
54929;SDS011;40833;53.238;6.576;2022-10-16T00:51:25;4.10;;;0.70;;
54929;SDS011;40833;53.238;6.576;2022-10-16T00:53:57;3.17;;;0.70;;
54929;SDS011;40833;53.238;6.576;2022-10-16T00:56:23;7.13;;;0.53;;
54929;SDS011;40833;53.238;6.576;2022-10-16T00:58:49;2.47;;;0.50;;
54929;SDS011;40833;53.238;6.576;2022-10-16T01:01:15;7.00;;;0.73;;
54929;SDS011;40833;53.238;6.576;2022-10-16T01:03:41;5.67;;;0.60;;
54929;SDS011;40833;53.238;6.576;2022-10-16T01:06:23;4.47;;;0.67;;
54929;SDS011;40833;53.238;6.576;2022-10-16T01:20:29;6.43;;;0.40;;
54929;SDS011;40833;53.238;6.576;2022-10-16T01:23:09;8.17;;;0.60;;
54929;SDS011;40833;53.238;6.576;2022-10-16T01:28:19;5.10;;;0.47;;
54929;SDS011;40833;53.238;6.576;2022-10-16T01:30:49;13.20;;;0.67;;
54929;SDS011;40833;53.238;6.576;2022-10-16T01:33:21;8.87;;;0.70;;
54929;SDS011;40833;53.238;6.576;2022-10-16T01:35:55;5.25;;;0.40;;
54929;SDS011;40833;53.238;6.576;2022-10-16T01:38:31;4.33;;;0.53;;
54929;SDS011;40833;53.238;6.576;2022-10-16T01:41:04;7.90;;;1.37;;
54929;SDS011;40833;53.238;6.576;2022-10-16T01:43:49;5.30;;;0.50;;
54929;SDS011;40833;53.238;6.576;2022-10-16T01:46:22;5.87;;;0.63;;
54929;SDS011;40833;53.238;6.576;2022-10-16T01:48:49;2.90;;;0.50;;
54929;SDS011;40833;53.238;6.576;2022-10-16T01:51:16;3.93;;;0.50;;
54929;SDS011;40833;53.238;6.576;2022-10-16T01:53:49;4.70;;;0.67;;
54929;SDS011;40833;53.238;6.576;2022-10-16T01:56:20;6.20;;;0.50;;
54929;SDS011;40833;53.238;6.576;2022-10-16T01:58:50;9.27;;;1.20;;
54929;SDS011;40833;53.238;6.576;2022-10-16T02:01:20;6.00;;;0.63;;
54929;SDS011;40833;53.238;6.576;2022-10-16T02:03:48;3.40;;;0.33;;
54929;SDS011;40833;53.238;6.576;2022-10-16T02:06:19;6.37;;;0.47;;
54929;SDS011;40833;53.238;6.576;2022-10-16T02:08:45;5.00;;;0.53;;
54929;SDS011;40833;53.238;6.576;2022-10-16T02:11:11;4.37;;;0.50;;
54929;SDS011;40833;53.238;6.576;2022-10-16T02:13:53;4.53;;;0.87;;
54929;SDS011;40833;53.238;6.576;2022-10-16T02:16:32;4.70;;;0.50;;
54929;SDS011;40833;53.238;6.576;2022-10-16T02:19:00;4.70;;;0.73;;
54929;SDS011;40833;53.238;6.576;2022-10-16T02:21:28;4.73;;;0.53;;
54929;SDS011;40833;53.238;6.576;2022-10-16T02:26:44;3.63;;;0.50;;
54929;SDS011;40833;53.238;6.576;2022-10-16T02:29:16;4.23;;;0.40;;
54929;SDS011;40833;53.238;6.576;2022-10-16T02:31:48;3.83;;;0.40;;
54929;SDS011;40833;53.238;6.576;2022-10-16T02:34:18;3.27;;;0.70;;
54929;SDS011;40833;53.238;6.576;2022-10-16T02:36:47;6.67;;;0.70;;
54929;SDS011;40833;53.238;6.576;2022-10-16T02:39:15;3.47;;;0.90;;
54929;SDS011;40833;53.238;6.576;2022-10-16T02:41:41;4.90;;;0.47;;
54929;SDS011;40833;53.238;6.576;2022-10-16T02:44:07;3.43;;;0.47;;
54929;SDS011;40833;53.238;6.576;2022-10-16T02:46:33;5.03;;;0.67;;
54929;SDS011;40833;53.238;6.576;2022-10-16T02:49:02;4.07;;;0.43;;
54929;SDS011;40833;53.238;6.576;2022-10-16T02:51:33;7.43;;;0.47;;
54929;SDS011;40833;53.238;6.576;2022-10-16T02:53:59;5.80;;;0.60;;
54929;SDS011;40833;53.238;6.576;2022-10-16T02:56:28;3.30;;;0.60;;
54929;SDS011;40833;53.238;6.576;2022-10-16T02:58:55;2.17;;;0.40;;
54929;SDS011;40833;53.238;6.576;2022-10-16T03:01:20;7.07;;;0.70;;
54929;SDS011;40833;53.238;6.576;2022-10-16T03:03:46;5.90;;;1.80;;
54929;SDS011;40833;53.238;6.576;2022-10-16T03:06:12;3.77;;;0.67;;
54929;SDS011;40833;53.238;6.576;2022-10-16T03:08:37;1.90;;;0.33;;
54929;SDS011;40833;53.238;6.576;2022-10-16T03:11:03;4.10;;;0.30;;
54929;SDS011;40833;53.238;6.576;2022-10-16T03:13:29;3.50;;;0.20;;
54929;SDS011;40833;53.238;6.576;2022-10-16T03:15:55;2.43;;;0.50;;
54929;SDS011;40833;53.238;6.576;2022-10-16T03:18:21;4.50;;;0.60;;
54929;SDS011;40833;53.238;6.576;2022-10-16T03:20:46;7.23;;;0.43;;
54929;SDS011;40833;53.238;6.576;2022-10-16T03:23:12;1.47;;;0.30;;
54929;SDS011;40833;53.238;6.576;2022-10-16T03:25:38;3.23;;;0.50;;
54929;SDS011;40833;53.238;6.576;2022-10-16T03:28:03;5.00;;;1.10;;
54929;SDS011;40833;53.238;6.576;2022-10-16T03:30:29;4.20;;;0.40;;
54929;SDS011;40833;53.238;6.576;2022-10-16T03:32:55;2.97;;;0.60;;
54929;SDS011;40833;53.238;6.576;2022-10-16T03:35:21;3.13;;;0.40;;
54929;SDS011;40833;53.238;6.576;2022-10-16T03:37:48;5.93;;;1.33;;
54929;SDS011;40833;53.238;6.576;2022-10-16T03:40:14;2.83;;;0.40;;
54929;SDS011;40833;53.238;6.576;2022-10-16T03:42:41;3.53;;;0.50;;
54929;SDS011;40833;53.238;6.576;2022-10-16T03:45:08;1.00;;;0.40;;
54929;SDS011;40833;53.238;6.576;2022-10-16T03:47:34;2.47;;;0.40;;
54929;SDS011;40833;53.238;6.576;2022-10-16T03:50:00;5.47;;;0.40;;
54929;SDS011;40833;53.238;6.576;2022-10-16T03:52:26;1.90;;;0.50;;
54929;SDS011;40833;53.238;6.576;2022-10-16T03:54:51;2.43;;;0.37;;
54929;SDS011;40833;53.238;6.576;2022-10-16T03:57:17;5.40;;;0.60;;
54929;SDS011;40833;53.238;6.576;2022-10-16T03:59:43;3.33;;;0.43;;
54929;SDS011;40833;53.238;6.576;2022-10-16T04:02:08;1.30;;;0.53;;
54929;SDS011;40833;53.238;6.576;2022-10-16T04:04:34;3.03;;;0.40;;
54929;SDS011;40833;53.238;6.576;2022-10-16T04:07:00;2.70;;;0.23;;
54929;SDS011;40833;53.238;6.576;2022-10-16T04:09:26;3.97;;;0.37;;
54929;SDS011;40833;53.238;6.576;2022-10-16T04:11:51;4.10;;;0.57;;
54929;SDS011;40833;53.238;6.576;2022-10-16T04:14:17;3.53;;;0.70;;
54929;SDS011;40833;53.238;6.576;2022-10-16T04:16:43;1.77;;;0.80;;
54929;SDS011;40833;53.238;6.576;2022-10-16T04:19:11;3.13;;;0.50;;
54929;SDS011;40833;53.238;6.576;2022-10-16T04:21:40;3.07;;;0.50;;
54929;SDS011;40833;53.238;6.576;2022-10-16T04:24:06;1.90;;;0.90;;
54929;SDS011;40833;53.238;6.576;2022-10-16T04:26:31;5.10;;;0.60;;
54929;SDS011;40833;53.238;6.576;2022-10-16T04:28:57;3.07;;;0.70;;
54929;SDS011;40833;53.238;6.576;2022-10-16T04:31:31;2.13;;;0.60;;
54929;SDS011;40833;53.238;6.576;2022-10-16T04:33:57;1.60;;;0.50;;
54929;SDS011;40833;53.238;6.576;2022-10-16T04:36:23;3.10;;;0.57;;
54929;SDS011;40833;53.238;6.576;2022-10-16T04:38:49;4.57;;;0.70;;
54929;SDS011;40833;53.238;6.576;2022-10-16T04:41:15;2.53;;;0.50;;
54929;SDS011;40833;53.238;6.576;2022-10-16T04:43:40;6.23;;;0.43;;
54929;SDS011;40833;53.238;6.576;2022-10-16T04:46:06;7.97;;;0.60;;
54929;SDS011;40833;53.238;6.576;2022-10-16T04:48:32;5.40;;;0.90;;
54929;SDS011;40833;53.238;6.576;2022-10-16T04:50:57;2.10;;;0.57;;
54929;SDS011;40833;53.238;6.576;2022-10-16T04:53:23;4.83;;;0.70;;
54929;SDS011;40833;53.238;6.576;2022-10-16T04:55:49;2.53;;;0.90;;
54929;SDS011;40833;53.238;6.576;2022-10-16T04:58:16;5.00;;;0.73;;
54929;SDS011;40833;53.238;6.576;2022-10-16T05:00:41;3.47;;;0.67;;
54929;SDS011;40833;53.238;6.576;2022-10-16T05:03:07;2.17;;;0.57;;
54929;SDS011;40833;53.238;6.576;2022-10-16T05:05:34;3.97;;;0.60;;
54929;SDS011;40833;53.238;6.576;2022-10-16T05:08:00;8.83;;;1.77;;
54929;SDS011;40833;53.238;6.576;2022-10-16T05:10:26;6.17;;;0.80;;
54929;SDS011;40833;53.238;6.576;2022-10-16T05:12:52;6.27;;;0.73;;
54929;SDS011;40833;53.238;6.576;2022-10-16T05:15:17;3.93;;;0.90;;
54929;SDS011;40833;53.238;6.576;2022-10-16T05:17:44;3.53;;;1.00;;
54929;SDS011;40833;53.238;6.576;2022-10-16T05:20:09;4.63;;;0.53;;
54929;SDS011;40833;53.238;6.576;2022-10-16T05:22:36;3.77;;;0.63;;
54929;SDS011;40833;53.238;6.576;2022-10-16T05:25:01;5.67;;;0.80;;
54929;SDS011;40833;53.238;6.576;2022-10-16T05:27:27;3.77;;;0.90;;
54929;SDS011;40833;53.238;6.576;2022-10-16T05:29:53;3.43;;;1.07;;
54929;SDS011;40833;53.238;6.576;2022-10-16T05:32:18;2.90;;;0.83;;
54929;SDS011;40833;53.238;6.576;2022-10-16T05:34:45;7.00;;;1.10;;
54929;SDS011;40833;53.238;6.576;2022-10-16T05:37:11;3.90;;;0.70;;
54929;SDS011;40833;53.238;6.576;2022-10-16T05:39:37;1.00;;;0.67;;
54929;SDS011;40833;53.238;6.576;2022-10-16T05:42:04;1.97;;;0.73;;
54929;SDS011;40833;53.238;6.576;2022-10-16T05:44:30;4.23;;;0.73;;
54929;SDS011;40833;53.238;6.576;2022-10-16T05:46:56;1.73;;;0.93;;
54929;SDS011;40833;53.238;6.576;2022-10-16T05:49:22;5.17;;;1.00;;
54929;SDS011;40833;53.238;6.576;2022-10-16T05:51:47;10.40;;;1.33;;
54929;SDS011;40833;53.238;6.576;2022-10-16T05:54:13;6.37;;;0.83;;
54929;SDS011;40833;53.238;6.576;2022-10-16T05:56:39;4.97;;;0.80;;
54929;SDS011;40833;53.238;6.576;2022-10-16T05:59:05;3.57;;;0.87;;
54929;SDS011;40833;53.238;6.576;2022-10-16T06:01:31;2.73;;;1.07;;
54929;SDS011;40833;53.238;6.576;2022-10-16T06:03:57;3.63;;;1.00;;
54929;SDS011;40833;53.238;6.576;2022-10-16T06:06:23;4.93;;;1.10;;
54929;SDS011;40833;53.238;6.576;2022-10-16T06:08:52;4.43;;;1.17;;
54929;SDS011;40833;53.238;6.576;2022-10-16T06:11:19;7.93;;;0.90;;
54929;SDS011;40833;53.238;6.576;2022-10-16T06:13:53;3.97;;;1.17;;
54929;SDS011;40833;53.238;6.576;2022-10-16T06:16:21;2.97;;;1.03;;
54929;SDS011;40833;53.238;6.576;2022-10-16T06:18:50;6.83;;;1.13;;
54929;SDS011;40833;53.238;6.576;2022-10-16T06:21:18;4.10;;;1.40;;
54929;SDS011;40833;53.238;6.576;2022-10-16T06:23:45;6.10;;;1.60;;
54929;SDS011;40833;53.238;6.576;2022-10-16T06:26:13;5.53;;;1.20;;
54929;SDS011;40833;53.238;6.576;2022-10-16T06:28:40;5.60;;;1.47;;
54929;SDS011;40833;53.238;6.576;2022-10-16T06:31:07;5.30;;;1.30;;
54929;SDS011;40833;53.238;6.576;2022-10-16T06:33:34;5.23;;;1.70;;
54929;SDS011;40833;53.238;6.576;2022-10-16T06:36:02;6.10;;;1.97;;
54929;SDS011;40833;53.238;6.576;2022-10-16T06:38:29;4.60;;;1.60;;
54929;SDS011;40833;53.238;6.576;2022-10-16T06:40:55;1.53;;;1.27;;
54929;SDS011;40833;53.238;6.576;2022-10-16T06:43:21;2.07;;;1.20;;
54929;SDS011;40833;53.238;6.576;2022-10-16T06:45:54;4.30;;;1.40;;
54929;SDS011;40833;53.238;6.576;2022-10-16T06:48:20;6.43;;;1.13;;
54929;SDS011;40833;53.238;6.576;2022-10-16T06:50:59;5.03;;;1.10;;
54929;SDS011;40833;53.238;6.576;2022-10-16T06:53:25;9.70;;;1.60;;
54929;SDS011;40833;53.238;6.576;2022-10-16T06:55:53;3.33;;;1.17;;
54929;SDS011;40833;53.238;6.576;2022-10-16T06:58:19;12.27;;;1.47;;
54929;SDS011;40833;53.238;6.576;2022-10-16T07:00:45;8.23;;;1.17;;
54929;SDS011;40833;53.238;6.576;2022-10-16T07:03:10;4.67;;;1.07;;
54929;SDS011;40833;53.238;6.576;2022-10-16T07:05:37;6.07;;;1.30;;
54929;SDS011;40833;53.238;6.576;2022-10-16T07:08:03;6.60;;;1.37;;
54929;SDS011;40833;53.238;6.576;2022-10-16T07:10:30;5.10;;;1.17;;
54929;SDS011;40833;53.238;6.576;2022-10-16T07:12:56;6.77;;;1.10;;
54929;SDS011;40833;53.238;6.576;2022-10-16T07:15:22;6.73;;;1.00;;
54929;SDS011;40833;53.238;6.576;2022-10-16T07:17:49;4.07;;;1.10;;
54929;SDS011;40833;53.238;6.576;2022-10-16T07:20:15;9.17;;;1.00;;
54929;SDS011;40833;53.238;6.576;2022-10-16T07:22:41;5.80;;;1.20;;
54929;SDS011;40833;53.238;6.576;2022-10-16T07:25:06;5.37;;;0.93;;
54929;SDS011;40833;53.238;6.576;2022-10-16T07:27:33;5.17;;;1.17;;
54929;SDS011;40833;53.238;6.576;2022-10-16T07:29:59;4.73;;;1.10;;
54929;SDS011;40833;53.238;6.576;2022-10-16T07:32:24;5.23;;;0.70;;
54929;SDS011;40833;53.238;6.576;2022-10-16T07:34:51;11.47;;;1.30;;
54929;SDS011;40833;53.238;6.576;2022-10-16T07:37:17;7.97;;;1.37;;
54929;SDS011;40833;53.238;6.576;2022-10-16T07:39:42;4.87;;;0.87;;
54929;SDS011;40833;53.238;6.576;2022-10-16T07:42:08;6.27;;;0.90;;
54929;SDS011;40833;53.238;6.576;2022-10-16T07:44:34;5.37;;;1.17;;
54929;SDS011;40833;53.238;6.576;2022-10-16T07:47:01;7.60;;;1.00;;
54929;SDS011;40833;53.238;6.576;2022-10-16T07:49:27;2.50;;;1.10;;
54929;SDS011;40833;53.238;6.576;2022-10-16T07:51:52;7.40;;;1.10;;
54929;SDS011;40833;53.238;6.576;2022-10-16T07:54:18;3.93;;;1.50;;
54929;SDS011;40833;53.238;6.576;2022-10-16T07:56:44;3.70;;;1.10;;
54929;SDS011;40833;53.238;6.576;2022-10-16T07:59:10;6.80;;;1.00;;
54929;SDS011;40833;53.238;6.576;2022-10-16T08:01:36;3.70;;;0.83;;
54929;SDS011;40833;53.238;6.576;2022-10-16T08:04:01;7.87;;;1.77;;
54929;SDS011;40833;53.238;6.576;2022-10-16T08:06:27;10.77;;;2.03;;
54929;SDS011;40833;53.238;6.576;2022-10-16T08:08:53;8.17;;;1.43;;
54929;SDS011;40833;53.238;6.576;2022-10-16T08:11:20;3.90;;;1.40;;
54929;SDS011;40833;53.238;6.576;2022-10-16T08:13:45;4.47;;;1.20;;
54929;SDS011;40833;53.238;6.576;2022-10-16T08:16:11;2.47;;;1.30;;
54929;SDS011;40833;53.238;6.576;2022-10-16T08:18:37;5.03;;;1.20;;
54929;SDS011;40833;53.238;6.576;2022-10-16T08:21:04;3.10;;;1.20;;
54929;SDS011;40833;53.238;6.576;2022-10-16T08:23:31;6.33;;;1.10;;
54929;SDS011;40833;53.238;6.576;2022-10-16T08:26:01;7.10;;;1.03;;
54929;SDS011;40833;53.238;6.576;2022-10-16T08:28:29;3.13;;;1.00;;
54929;SDS011;40833;53.238;6.576;2022-10-16T08:30:55;5.33;;;1.50;;
54929;SDS011;40833;53.238;6.576;2022-10-16T08:33:22;4.97;;;0.90;;
54929;SDS011;40833;53.238;6.576;2022-10-16T08:35:54;4.50;;;1.47;;
54929;SDS011;40833;53.238;6.576;2022-10-16T08:38:20;6.07;;;1.13;;
54929;SDS011;40833;53.238;6.576;2022-10-16T08:40:46;2.93;;;0.90;;
54929;SDS011;40833;53.238;6.576;2022-10-16T08:48:45;5.70;;;0.80;;
54929;SDS011;40833;53.238;6.576;2022-10-16T08:51:24;6.70;;;1.00;;
54929;SDS011;40833;53.238;6.576;2022-10-16T08:53:55;5.27;;;0.50;;
54929;SDS011;40833;53.238;6.576;2022-10-16T08:56:23;4.97;;;0.70;;
54929;SDS011;40833;53.238;6.576;2022-10-16T08:58:49;5.07;;;0.53;;
54929;SDS011;40833;53.238;6.576;2022-10-16T09:01:17;3.97;;;0.70;;
54929;SDS011;40833;53.238;6.576;2022-10-16T09:19:46;7.97;;;0.73;;
54929;SDS011;40833;53.238;6.576;2022-10-16T09:22:18;4.93;;;0.50;;
54929;SDS011;40833;53.238;6.576;2022-10-16T09:24:50;4.95;;;0.52;;
54929;SDS011;40833;53.238;6.576;2022-10-16T09:27:16;6.57;;;0.87;;
54929;SDS011;40833;53.238;6.576;2022-10-16T09:29:41;6.47;;;1.23;;
54929;SDS011;40833;53.238;6.576;2022-10-16T09:32:10;7.73;;;0.70;;
54929;SDS011;40833;53.238;6.576;2022-10-16T09:34:41;6.80;;;0.80;;
54929;SDS011;40833;53.238;6.576;2022-10-16T09:37:12;8.43;;;1.17;;
54929;SDS011;40833;53.238;6.576;2022-10-16T09:39:46;5.60;;;0.52;;
54929;SDS011;40833;53.238;6.576;2022-10-16T09:42:17;9.40;;;0.80;;
54929;SDS011;40833;53.238;6.576;2022-10-16T09:44:55;5.70;;;0.87;;
54929;SDS011;40833;53.238;6.576;2022-10-16T09:47:28;11.80;;;1.33;;
54929;SDS011;40833;53.238;6.576;2022-10-16T09:49:59;12.10;;;0.97;;
54929;SDS011;40833;53.238;6.576;2022-10-16T09:52:29;13.50;;;1.00;;
54929;SDS011;40833;53.238;6.576;2022-10-16T09:54:57;7.90;;;1.00;;
54929;SDS011;40833;53.238;6.576;2022-10-16T09:57:24;6.47;;;0.50;;
54929;SDS011;40833;53.238;6.576;2022-10-16T09:59:59;12.87;;;1.30;;
54929;SDS011;40833;53.238;6.576;2022-10-16T10:02:31;9.17;;;0.77;;
54929;SDS011;40833;53.238;6.576;2022-10-16T10:05:00;11.83;;;1.83;;
54929;SDS011;40833;53.238;6.576;2022-10-16T10:07:31;10.53;;;1.40;;
54929;SDS011;40833;53.238;6.576;2022-10-16T10:09:59;8.33;;;1.10;;
54929;SDS011;40833;53.238;6.576;2022-10-16T10:12:27;9.60;;;0.90;;
54929;SDS011;40833;53.238;6.576;2022-10-16T10:14:57;9.47;;;0.93;;
54929;SDS011;40833;53.238;6.576;2022-10-16T10:17:29;17.07;;;1.53;;
54929;SDS011;40833;53.238;6.576;2022-10-16T10:19:56;16.00;;;2.37;;
54929;SDS011;40833;53.238;6.576;2022-10-16T10:22:27;11.97;;;1.50;;
54929;SDS011;40833;53.238;6.576;2022-10-16T10:27:39;18.17;;;1.55;;
54929;SDS011;40833;53.238;6.576;2022-10-16T10:36:11;16.20;;;1.57;;
54929;SDS011;40833;53.238;6.576;2022-10-16T10:41:56;15.20;;;1.55;;
54929;SDS011;40833;53.238;6.576;2022-10-16T10:52:48;13.87;;;1.47;;
54929;SDS011;40833;53.238;6.576;2022-10-16T10:55:45;13.90;;;1.77;;
54929;SDS011;40833;53.238;6.576;2022-10-16T11:01:16;11.60;;;1.10;;
54929;SDS011;40833;53.238;6.576;2022-10-16T11:06:22;12.87;;;1.10;;
54929;SDS011;40833;53.238;6.576;2022-10-16T11:09:12;11.93;;;1.13;;
54929;SDS011;40833;53.238;6.576;2022-10-16T11:17:35;14.23;;;1.63;;
54929;SDS011;40833;53.238;6.576;2022-10-16T11:20:23;10.50;;;1.67;;
54929;SDS011;40833;53.238;6.576;2022-10-16T11:25:43;13.13;;;1.97;;
54929;SDS011;40833;53.238;6.576;2022-10-16T11:28:14;13.53;;;1.60;;
54929;SDS011;40833;53.238;6.576;2022-10-16T11:31:08;9.00;;;1.27;;
54929;SDS011;40833;53.238;6.576;2022-10-16T11:36:35;16.92;;;1.83;;
54929;SDS011;40833;53.238;6.576;2022-10-16T11:39:19;9.27;;;0.83;;
54929;SDS011;40833;53.238;6.576;2022-10-16T11:49:55;13.57;;;1.33;;
54929;SDS011;40833;53.238;6.576;2022-10-16T11:55:17;13.50;;;1.10;;
54929;SDS011;40833;53.238;6.576;2022-10-16T11:57:59;10.17;;;1.43;;
54929;SDS011;40833;53.238;6.576;2022-10-16T12:04:21;10.60;;;1.10;;
54929;SDS011;40833;53.238;6.576;2022-10-16T12:09:34;12.80;;;0.90;;
54929;SDS011;40833;53.238;6.576;2022-10-16T12:12:03;15.20;;;1.33;;
54929;SDS011;40833;53.238;6.576;2022-10-16T12:17:00;9.67;;;1.77;;
54929;SDS011;40833;53.238;6.576;2022-10-16T12:19:59;10.27;;;1.07;;
54929;SDS011;40833;53.238;6.576;2022-10-16T12:22:58;12.00;;;1.97;;
54929;SDS011;40833;53.238;6.576;2022-10-16T12:25:33;8.30;;;1.10;;
54929;SDS011;40833;53.238;6.576;2022-10-16T12:28:05;15.27;;;1.48;;
54929;SDS011;40833;53.238;6.576;2022-10-16T12:30:35;16.57;;;1.57;;
54929;SDS011;40833;53.238;6.576;2022-10-16T12:33:05;18.23;;;1.47;;
54929;SDS011;40833;53.238;6.576;2022-10-16T12:35:43;11.70;;;1.37;;
54929;SDS011;40833;53.238;6.576;2022-10-16T12:38:20;10.17;;;1.10;;
54929;SDS011;40833;53.238;6.576;2022-10-16T12:40:54;16.27;;;1.87;;
54929;SDS011;40833;53.238;6.576;2022-10-16T12:46:20;12.27;;;1.60;;
54929;SDS011;40833;53.238;6.576;2022-10-16T12:51:38;13.90;;;1.53;;
54929;SDS011;40833;53.238;6.576;2022-10-16T12:54:21;11.67;;;1.57;;
54929;SDS011;40833;53.238;6.576;2022-10-16T13:16:16;14.17;;;1.33;;
54929;SDS011;40833;53.238;6.576;2022-10-16T13:30:28;10.63;;;1.17;;
54929;SDS011;40833;53.238;6.576;2022-10-16T13:35:50;9.20;;;1.17;;
54929;SDS011;40833;53.238;6.576;2022-10-16T13:38:18;8.87;;;0.70;;
54929;SDS011;40833;53.238;6.576;2022-10-16T13:43:31;11.30;;;1.20;;
54929;SDS011;40833;53.238;6.576;2022-10-16T13:46:04;8.30;;;0.80;;
54929;SDS011;40833;53.238;6.576;2022-10-16T13:48:38;14.63;;;1.23;;
54929;SDS011;40833;53.238;6.576;2022-10-16T13:51:05;6.83;;;1.33;;
54929;SDS011;40833;53.238;6.576;2022-10-16T13:53:35;12.67;;;1.20;;
54929;SDS011;40833;53.238;6.576;2022-10-16T13:56:02;13.93;;;1.40;;
54929;SDS011;40833;53.238;6.576;2022-10-16T13:58:29;10.63;;;0.87;;
54929;SDS011;40833;53.238;6.576;2022-10-16T14:00:58;10.35;;;1.08;;
54929;SDS011;40833;53.238;6.576;2022-10-16T14:03:27;10.95;;;1.13;;
54929;SDS011;40833;53.238;6.576;2022-10-16T14:06:04;11.75;;;1.00;;
54929;SDS011;40833;53.238;6.576;2022-10-16T14:08:37;9.48;;;1.40;;
54929;SDS011;40833;53.238;6.576;2022-10-16T14:11:09;9.63;;;1.23;;
54929;SDS011;40833;53.238;6.576;2022-10-16T14:13:45;11.07;;;1.30;;
54929;SDS011;40833;53.238;6.576;2022-10-16T14:16:16;9.27;;;1.10;;
54929;SDS011;40833;53.238;6.576;2022-10-16T14:18:58;9.50;;;0.90;;
54929;SDS011;40833;53.238;6.576;2022-10-16T14:21:27;10.73;;;1.25;;
54929;SDS011;40833;53.238;6.576;2022-10-16T14:23:54;11.23;;;1.73;;
54929;SDS011;40833;53.238;6.576;2022-10-16T14:26:21;11.73;;;1.67;;
54929;SDS011;40833;53.238;6.576;2022-10-16T14:29:00;13.43;;;1.45;;
54929;SDS011;40833;53.238;6.576;2022-10-16T14:31:30;14.57;;;1.85;;
54929;SDS011;40833;53.238;6.576;2022-10-16T14:33:58;15.90;;;1.58;;
54929;SDS011;40833;53.238;6.576;2022-10-16T14:36:25;13.77;;;1.70;;
54929;SDS011;40833;53.238;6.576;2022-10-16T14:41:24;12.00;;;1.48;;
54929;SDS011;40833;53.238;6.576;2022-10-16T14:43:51;11.68;;;1.65;;
54929;SDS011;40833;53.238;6.576;2022-10-16T14:46:28;8.38;;;0.90;;
54929;SDS011;40833;53.238;6.576;2022-10-16T14:49:22;15.60;;;1.90;;
54929;SDS011;40833;53.238;6.576;2022-10-16T14:51:51;11.65;;;1.38;;
54929;SDS011;40833;53.238;6.576;2022-10-16T14:54:18;13.20;;;1.85;;
54929;SDS011;40833;53.238;6.576;2022-10-16T14:56:52;12.27;;;1.30;;
54929;SDS011;40833;53.238;6.576;2022-10-16T14:59:30;9.18;;;1.25;;
54929;SDS011;40833;53.238;6.576;2022-10-16T15:02:00;13.48;;;1.98;;
54929;SDS011;40833;53.238;6.576;2022-10-16T15:04:39;14.82;;;1.30;;
54929;SDS011;40833;53.238;6.576;2022-10-16T15:07:06;8.48;;;0.88;;
54929;SDS011;40833;53.238;6.576;2022-10-16T15:09:33;10.85;;;1.17;;
54929;SDS011;40833;53.238;6.576;2022-10-16T15:11:59;10.77;;;1.00;;
54929;SDS011;40833;53.238;6.576;2022-10-16T15:14:24;13.43;;;1.57;;
54929;SDS011;40833;53.238;6.576;2022-10-16T15:16:50;13.07;;;1.47;;
54929;SDS011;40833;53.238;6.576;2022-10-16T15:19:16;11.40;;;1.10;;
54929;SDS011;40833;53.238;6.576;2022-10-16T15:21:42;14.57;;;1.30;;
54929;SDS011;40833;53.238;6.576;2022-10-16T15:24:09;15.23;;;1.37;;
54929;SDS011;40833;53.238;6.576;2022-10-16T15:26:37;11.87;;;1.50;;
54929;SDS011;40833;53.238;6.576;2022-10-16T15:29:03;13.13;;;1.33;;
54929;SDS011;40833;53.238;6.576;2022-10-16T15:31:32;11.50;;;1.30;;
54929;SDS011;40833;53.238;6.576;2022-10-16T15:33:59;12.13;;;1.97;;
54929;SDS011;40833;53.238;6.576;2022-10-16T15:36:30;13.10;;;1.40;;
54929;SDS011;40833;53.238;6.576;2022-10-16T15:39:02;16.70;;;2.00;;
54929;SDS011;40833;53.238;6.576;2022-10-16T15:41:28;11.87;;;1.70;;
54929;SDS011;40833;53.238;6.576;2022-10-16T15:43:54;11.33;;;1.40;;
54929;SDS011;40833;53.238;6.576;2022-10-16T15:46:20;13.53;;;2.17;;
54929;SDS011;40833;53.238;6.576;2022-10-16T15:48:48;17.87;;;2.53;;
54929;SDS011;40833;53.238;6.576;2022-10-16T15:51:15;16.37;;;1.90;;
54929;SDS011;40833;53.238;6.576;2022-10-16T15:53:41;11.40;;;1.60;;
54929;SDS011;40833;53.238;6.576;2022-10-16T15:56:08;11.37;;;1.30;;
54929;SDS011;40833;53.238;6.576;2022-10-16T15:58:35;11.93;;;1.83;;
54929;SDS011;40833;53.238;6.576;2022-10-16T16:01:04;13.47;;;1.70;;
54929;SDS011;40833;53.238;6.576;2022-10-16T16:03:31;10.20;;;1.53;;
54929;SDS011;40833;53.238;6.576;2022-10-16T16:05:57;13.83;;;1.47;;
54929;SDS011;40833;53.238;6.576;2022-10-16T16:08:28;12.27;;;1.93;;
54929;SDS011;40833;53.238;6.576;2022-10-16T16:11:00;19.53;;;1.93;;
54929;SDS011;40833;53.238;6.576;2022-10-16T16:13:30;10.00;;;1.73;;
54929;SDS011;40833;53.238;6.576;2022-10-16T16:15:56;15.37;;;1.53;;
54929;SDS011;40833;53.238;6.576;2022-10-16T16:18:22;18.20;;;2.60;;
54929;SDS011;40833;53.238;6.576;2022-10-16T16:20:49;12.03;;;1.13;;
54929;SDS011;40833;53.238;6.576;2022-10-16T16:23:15;12.00;;;2.10;;
54929;SDS011;40833;53.238;6.576;2022-10-16T16:25:41;11.60;;;1.00;;
54929;SDS011;40833;53.238;6.576;2022-10-16T16:28:07;10.77;;;1.97;;
54929;SDS011;40833;53.238;6.576;2022-10-16T16:30:35;16.07;;;1.40;;
54929;SDS011;40833;53.238;6.576;2022-10-16T16:33:01;12.33;;;1.30;;
54929;SDS011;40833;53.238;6.576;2022-10-16T16:35:27;14.33;;;1.90;;
54929;SDS011;40833;53.238;6.576;2022-10-16T16:37:52;15.63;;;2.50;;
54929;SDS011;40833;53.238;6.576;2022-10-16T16:40:18;11.13;;;1.60;;
54929;SDS011;40833;53.238;6.576;2022-10-16T16:42:43;10.90;;;2.60;;
54929;SDS011;40833;53.238;6.576;2022-10-16T16:45:09;19.40;;;3.17;;
54929;SDS011;40833;53.238;6.576;2022-10-16T16:47:35;10.00;;;1.50;;
54929;SDS011;40833;53.238;6.576;2022-10-16T16:50:01;17.63;;;3.30;;
54929;SDS011;40833;53.238;6.576;2022-10-16T16:52:29;12.17;;;1.97;;
54929;SDS011;40833;53.238;6.576;2022-10-16T16:54:55;16.83;;;3.10;;
54929;SDS011;40833;53.238;6.576;2022-10-16T16:57:21;18.57;;;2.30;;
54929;SDS011;40833;53.238;6.576;2022-10-16T16:59:47;17.83;;;3.70;;
54929;SDS011;40833;53.238;6.576;2022-10-16T17:02:16;11.17;;;2.13;;
54929;SDS011;40833;53.238;6.576;2022-10-16T17:04:42;18.60;;;2.20;;
54929;SDS011;40833;53.238;6.576;2022-10-16T17:07:07;17.10;;;1.93;;
54929;SDS011;40833;53.238;6.576;2022-10-16T17:09:33;10.50;;;1.30;;
54929;SDS011;40833;53.238;6.576;2022-10-16T17:11:59;13.77;;;2.13;;
54929;SDS011;40833;53.238;6.576;2022-10-16T17:14:25;13.17;;;2.43;;
54929;SDS011;40833;53.238;6.576;2022-10-16T17:16:51;11.93;;;1.70;;
54929;SDS011;40833;53.238;6.576;2022-10-16T17:19:18;9.77;;;2.30;;